sensor_id;sensor_type;location;lat;lon;timestamp;pressure;altitude;pressure_sealevel;temperature;humidity
61554;BME280;47425;51.976;5.326;2023-09-19T00:01:09;100589.25;;;22.11;55.37
61554;BME280;47425;51.976;5.326;2023-09-19T00:03:38;100580.69;;;22.19;55.15
61554;BME280;47425;51.976;5.326;2023-09-19T00:06:07;100591.75;;;22.26;54.77
61554;BME280;47425;51.976;5.326;2023-09-19T00:08:34;100594.03;;;22.19;54.97
61554;BME280;47425;51.976;5.326;2023-09-19T00:11:01;100594.97;;;22.18;55.04
61554;BME280;47425;51.976;5.326;2023-09-19T00:13:28;100591.34;;;22.19;54.71
61554;BME280;47425;51.976;5.326;2023-09-19T00:15:56;100591.59;;;22.16;54.85
61554;BME280;47425;51.976;5.326;2023-09-19T00:18:24;100604.00;;;22.28;54.55
61554;BME280;47425;51.976;5.326;2023-09-19T00:20:58;100609.59;;;22.25;54.46
61554;BME280;47425;51.976;5.326;2023-09-19T00:23:25;100611.03;;;22.05;54.96
61554;BME280;47425;51.976;5.326;2023-09-19T00:25:52;100606.03;;;22.01;55.16
61554;BME280;47425;51.976;5.326;2023-09-19T00:28:22;100611.59;;;21.98;55.07
61554;BME280;47425;51.976;5.326;2023-09-19T00:30:49;100611.13;;;21.79;55.44
61554;BME280;47425;51.976;5.326;2023-09-19T00:33:16;100618.66;;;21.86;55.74
61554;BME280;47425;51.976;5.326;2023-09-19T00:35:48;100616.09;;;21.97;55.22
61554;BME280;47425;51.976;5.326;2023-09-19T00:38:16;100619.88;;;22.06;55.15
61554;BME280;47425;51.976;5.326;2023-09-19T00:40:44;100616.16;;;22.08;55.00
61554;BME280;47425;51.976;5.326;2023-09-19T00:43:11;100620.41;;;22.11;55.06
61554;BME280;47425;51.976;5.326;2023-09-19T00:45:38;100621.72;;;22.05;54.60
61554;BME280;47425;51.976;5.326;2023-09-19T00:48:07;100621.06;;;22.02;54.83
61554;BME280;47425;51.976;5.326;2023-09-19T00:50:37;100625.88;;;21.96;55.46
61554;BME280;47425;51.976;5.326;2023-09-19T00:53:07;100628.53;;;22.09;55.02
61554;BME280;47425;51.976;5.326;2023-09-19T00:55:36;100622.00;;;22.13;54.74
61554;BME280;47425;51.976;5.326;2023-09-19T00:58:03;100628.41;;;22.11;54.61
61554;BME280;47425;51.976;5.326;2023-09-19T01:00:33;100634.69;;;22.10;55.07
61554;BME280;47425;51.976;5.326;2023-09-19T01:02:59;100631.72;;;22.15;54.52
61554;BME280;47425;51.976;5.326;2023-09-19T01:05:26;100638.31;;;22.09;54.78
61554;BME280;47425;51.976;5.326;2023-09-19T01:07:54;100632.28;;;21.94;55.20
61554;BME280;47425;51.976;5.326;2023-09-19T01:10:22;100634.63;;;21.99;55.02
61554;BME280;47425;51.976;5.326;2023-09-19T01:12:54;100646.47;;;21.94;54.90
61554;BME280;47425;51.976;5.326;2023-09-19T01:15:28;100636.25;;;21.88;55.40
61554;BME280;47425;51.976;5.326;2023-09-19T01:18:01;100637.84;;;21.91;55.17
61554;BME280;47425;51.976;5.326;2023-09-19T01:20:34;100639.88;;;21.87;55.60
61554;BME280;47425;51.976;5.326;2023-09-19T01:23:10;100645.59;;;21.94;55.28
61554;BME280;47425;51.976;5.326;2023-09-19T01:28:34;100657.56;;;21.75;55.27
61554;BME280;47425;51.976;5.326;2023-09-19T01:31:06;100654.06;;;21.62;55.48
61554;BME280;47425;51.976;5.326;2023-09-19T01:33:55;100649.38;;;21.66;56.25
61554;BME280;47425;51.976;5.326;2023-09-19T01:36:30;100653.22;;;21.74;55.63
61554;BME280;47425;51.976;5.326;2023-09-19T01:38:59;100655.03;;;21.74;54.80
61554;BME280;47425;51.976;5.326;2023-09-19T01:41:38;100650.69;;;21.60;55.51
61554;BME280;47425;51.976;5.326;2023-09-19T01:44:09;100649.78;;;21.46;56.23
61554;BME280;47425;51.976;5.326;2023-09-19T01:46:41;100655.88;;;21.61;55.91
61554;BME280;47425;51.976;5.326;2023-09-19T01:49:12;100659.84;;;21.56;55.84
61554;BME280;47425;51.976;5.326;2023-09-19T01:51:46;100656.06;;;21.45;55.89
61554;BME280;47425;51.976;5.326;2023-09-19T01:54:18;100662.47;;;21.43;55.36
61554;BME280;47425;51.976;5.326;2023-09-19T01:56:54;100661.84;;;21.39;55.92
61554;BME280;47425;51.976;5.326;2023-09-19T01:59:25;100663.72;;;21.24;56.21
61554;BME280;47425;51.976;5.326;2023-09-19T02:01:56;100661.16;;;21.23;55.81
61554;BME280;47425;51.976;5.326;2023-09-19T02:04:26;100663.09;;;21.21;55.90
61554;BME280;47425;51.976;5.326;2023-09-19T02:06:53;100664.13;;;21.05;55.91
61554;BME280;47425;51.976;5.326;2023-09-19T02:09:20;100670.31;;;21.06;56.26
61554;BME280;47425;51.976;5.326;2023-09-19T02:11:50;100665.31;;;21.14;56.27
61554;BME280;47425;51.976;5.326;2023-09-19T02:14:16;100669.03;;;21.11;55.81
61554;BME280;47425;51.976;5.326;2023-09-19T02:16:44;100669.78;;;21.13;56.42
61554;BME280;47425;51.976;5.326;2023-09-19T02:19:12;100660.22;;;21.24;55.59
61554;BME280;47425;51.976;5.326;2023-09-19T02:21:39;100661.31;;;21.34;56.27
61554;BME280;47425;51.976;5.326;2023-09-19T02:24:06;100666.53;;;21.49;55.74
61554;BME280;47425;51.976;5.326;2023-09-19T02:26:35;100664.91;;;21.33;55.41
61554;BME280;47425;51.976;5.326;2023-09-19T02:29:02;100671.31;;;21.31;55.45
61554;BME280;47425;51.976;5.326;2023-09-19T02:31:30;100670.66;;;21.14;55.35
61554;BME280;47425;51.976;5.326;2023-09-19T02:33:56;100673.44;;;21.12;55.16
61554;BME280;47425;51.976;5.326;2023-09-19T02:36:24;100671.72;;;21.24;55.21
61554;BME280;47425;51.976;5.326;2023-09-19T02:38:52;100670.88;;;21.24;54.88
61554;BME280;47425;51.976;5.326;2023-09-19T02:41:18;100668.00;;;21.27;55.32
61554;BME280;47425;51.976;5.326;2023-09-19T02:43:45;100676.22;;;21.37;54.58
61554;BME280;47425;51.976;5.326;2023-09-19T02:46:12;100673.34;;;21.40;54.66
61554;BME280;47425;51.976;5.326;2023-09-19T02:48:39;100681.22;;;21.41;54.64
61554;BME280;47425;51.976;5.326;2023-09-19T02:51:06;100685.91;;;21.38;54.56
61554;BME280;47425;51.976;5.326;2023-09-19T02:53:34;100687.81;;;21.23;53.51
61554;BME280;47425;51.976;5.326;2023-09-19T02:56:01;100688.63;;;21.10;55.10
61554;BME280;47425;51.976;5.326;2023-09-19T02:58:28;100686.06;;;21.09;54.80
61554;BME280;47425;51.976;5.326;2023-09-19T03:00:55;100686.41;;;21.04;54.54
61554;BME280;47425;51.976;5.326;2023-09-19T03:03:24;100684.88;;;21.00;54.47
61554;BME280;47425;51.976;5.326;2023-09-19T03:05:55;100681.69;;;21.08;54.60
61554;BME280;47425;51.976;5.326;2023-09-19T03:08:23;100693.00;;;21.11;54.97
61554;BME280;47425;51.976;5.326;2023-09-19T03:10:51;100683.34;;;21.23;54.27
61554;BME280;47425;51.976;5.326;2023-09-19T03:13:18;100678.63;;;21.14;53.78
61554;BME280;47425;51.976;5.326;2023-09-19T03:15:46;100677.38;;;21.20;54.53
61554;BME280;47425;51.976;5.326;2023-09-19T03:18:19;100672.25;;;21.29;54.09
61554;BME280;47425;51.976;5.326;2023-09-19T03:20:51;100670.13;;;21.35;53.51
61554;BME280;47425;51.976;5.326;2023-09-19T03:23:20;100673.13;;;21.30;52.79
61554;BME280;47425;51.976;5.326;2023-09-19T03:25:46;100671.28;;;21.18;54.26
61554;BME280;47425;51.976;5.326;2023-09-19T03:28:16;100665.94;;;21.18;53.16
61554;BME280;47425;51.976;5.326;2023-09-19T03:30:43;100673.53;;;21.24;53.95
61554;BME280;47425;51.976;5.326;2023-09-19T03:33:09;100674.63;;;21.34;53.22
61554;BME280;47425;51.976;5.326;2023-09-19T03:35:38;100679.75;;;21.50;53.76
61554;BME280;47425;51.976;5.326;2023-09-19T03:38:05;100689.88;;;21.58;53.34
61554;BME280;47425;51.976;5.326;2023-09-19T03:40:32;100681.88;;;21.58;51.75
61554;BME280;47425;51.976;5.326;2023-09-19T03:43:00;100681.97;;;21.31;52.14
61554;BME280;47425;51.976;5.326;2023-09-19T03:45:28;100670.31;;;21.19;52.55
61554;BME280;47425;51.976;5.326;2023-09-19T03:47:54;100663.81;;;21.23;53.22
61554;BME280;47425;51.976;5.326;2023-09-19T03:50:23;100660.53;;;21.32;52.30
61554;BME280;47425;51.976;5.326;2023-09-19T03:52:50;100670.13;;;21.22;52.60
61554;BME280;47425;51.976;5.326;2023-09-19T03:55:17;100667.38;;;21.23;52.31
61554;BME280;47425;51.976;5.326;2023-09-19T03:57:47;100663.09;;;21.21;52.84
61554;BME280;47425;51.976;5.326;2023-09-19T04:00:14;100674.25;;;21.13;52.21
61554;BME280;47425;51.976;5.326;2023-09-19T04:02:47;100674.75;;;20.92;53.04
61554;BME280;47425;51.976;5.326;2023-09-19T04:05:14;100675.22;;;20.99;53.09
61554;BME280;47425;51.976;5.326;2023-09-19T04:07:41;100684.13;;;20.98;53.00
61554;BME280;47425;51.976;5.326;2023-09-19T04:10:08;100692.84;;;21.00;52.55
61554;BME280;47425;51.976;5.326;2023-09-19T04:12:36;100691.91;;;20.88;53.32
61554;BME280;47425;51.976;5.326;2023-09-19T04:15:03;100697.75;;;20.93;53.17
61554;BME280;47425;51.976;5.326;2023-09-19T04:17:31;100698.81;;;20.91;52.71
61554;BME280;47425;51.976;5.326;2023-09-19T04:20:01;100697.44;;;20.98;53.59
61554;BME280;47425;51.976;5.326;2023-09-19T04:22:30;100709.72;;;21.01;52.82
61554;BME280;47425;51.976;5.326;2023-09-19T04:24:57;100711.59;;;20.99;52.40
61554;BME280;47425;51.976;5.326;2023-09-19T04:27:23;100715.25;;;21.10;53.05
61554;BME280;47425;51.976;5.326;2023-09-19T04:29:51;100719.56;;;21.26;51.85
61554;BME280;47425;51.976;5.326;2023-09-19T04:32:18;100729.47;;;21.24;51.65
61554;BME280;47425;51.976;5.326;2023-09-19T04:34:44;100723.28;;;21.23;51.71
61554;BME280;47425;51.976;5.326;2023-09-19T04:37:12;100728.56;;;21.10;52.13
61554;BME280;47425;51.976;5.326;2023-09-19T04:39:40;100729.75;;;21.06;51.25
61554;BME280;47425;51.976;5.326;2023-09-19T04:42:06;100730.91;;;21.02;52.19
61554;BME280;47425;51.976;5.326;2023-09-19T04:44:34;100740.63;;;21.16;52.06
61554;BME280;47425;51.976;5.326;2023-09-19T04:47:01;100744.75;;;21.07;52.24
61554;BME280;47425;51.976;5.326;2023-09-19T04:49:28;100742.31;;;21.04;52.06
61554;BME280;47425;51.976;5.326;2023-09-19T04:51:54;100735.50;;;21.13;51.74
61554;BME280;47425;51.976;5.326;2023-09-19T04:54:22;100733.28;;;21.20;51.57
61554;BME280;47425;51.976;5.326;2023-09-19T04:56:50;100736.28;;;21.28;51.24
61554;BME280;47425;51.976;5.326;2023-09-19T04:59:16;100736.59;;;21.23;51.12
61554;BME280;47425;51.976;5.326;2023-09-19T05:01:43;100743.63;;;21.24;51.45
61554;BME280;47425;51.976;5.326;2023-09-19T05:04:09;100743.94;;;21.20;51.49
61554;BME280;47425;51.976;5.326;2023-09-19T05:06:36;100734.25;;;21.19;51.24
61554;BME280;47425;51.976;5.326;2023-09-19T05:09:04;100736.19;;;21.29;51.67
61554;BME280;47425;51.976;5.326;2023-09-19T05:11:32;100740.78;;;21.40;50.88
61554;BME280;47425;51.976;5.326;2023-09-19T05:13:59;100733.22;;;21.34;50.49
61554;BME280;47425;51.976;5.326;2023-09-19T05:16:28;100738.84;;;21.29;50.91
61554;BME280;47425;51.976;5.326;2023-09-19T05:18:56;100735.22;;;21.31;50.40
61554;BME280;47425;51.976;5.326;2023-09-19T05:21:24;100740.56;;;21.31;50.57
61554;BME280;47425;51.976;5.326;2023-09-19T05:23:54;100741.38;;;21.18;51.00
61554;BME280;47425;51.976;5.326;2023-09-19T05:26:20;100750.81;;;21.09;51.24
61554;BME280;47425;51.976;5.326;2023-09-19T05:28:48;100734.66;;;21.12;50.86
61554;BME280;47425;51.976;5.326;2023-09-19T05:31:15;100743.16;;;21.05;51.33
61554;BME280;47425;51.976;5.326;2023-09-19T05:33:43;100741.75;;;20.99;50.91
61554;BME280;47425;51.976;5.326;2023-09-19T05:36:09;100746.75;;;20.91;51.56
61554;BME280;47425;51.976;5.326;2023-09-19T05:38:38;100737.16;;;20.88;51.48
61554;BME280;47425;51.976;5.326;2023-09-19T05:41:06;100740.19;;;20.82;52.15
61554;BME280;47425;51.976;5.326;2023-09-19T05:43:33;100738.19;;;20.86;51.66
61554;BME280;47425;51.976;5.326;2023-09-19T05:46:01;100734.72;;;20.98;51.32
61554;BME280;47425;51.976;5.326;2023-09-19T05:48:29;100743.00;;;20.93;51.60
61554;BME280;47425;51.976;5.326;2023-09-19T05:50:55;100738.53;;;20.94;52.03
61554;BME280;47425;51.976;5.326;2023-09-19T05:53:22;100737.03;;;20.90;52.36
61554;BME280;47425;51.976;5.326;2023-09-19T05:55:49;100742.81;;;20.97;52.11
61554;BME280;47425;51.976;5.326;2023-09-19T05:58:15;100738.53;;;20.94;52.43
61554;BME280;47425;51.976;5.326;2023-09-19T06:00:42;100730.22;;;20.86;51.99
61554;BME280;47425;51.976;5.326;2023-09-19T06:03:11;100753.41;;;20.84;52.46
61554;BME280;47425;51.976;5.326;2023-09-19T06:05:39;100753.19;;;20.87;53.40
61554;BME280;47425;51.976;5.326;2023-09-19T06:08:06;100760.06;;;21.04;52.34
61554;BME280;47425;51.976;5.326;2023-09-19T06:10:34;100760.28;;;21.01;52.56
61554;BME280;47425;51.976;5.326;2023-09-19T06:13:01;100767.63;;;20.97;52.51
61554;BME280;47425;51.976;5.326;2023-09-19T06:15:29;100755.25;;;20.96;52.02
61554;BME280;47425;51.976;5.326;2023-09-19T06:17:57;100765.16;;;20.94;52.20
61554;BME280;47425;51.976;5.326;2023-09-19T06:20:26;100764.59;;;20.89;53.25
61554;BME280;47425;51.976;5.326;2023-09-19T06:22:52;100781.47;;;21.02;53.24
61554;BME280;47425;51.976;5.326;2023-09-19T06:25:19;100764.47;;;21.05;53.05
61554;BME280;47425;51.976;5.326;2023-09-19T06:27:46;100766.84;;;21.22;52.64
61554;BME280;47425;51.976;5.326;2023-09-19T06:30:12;100762.25;;;21.24;52.82
61554;BME280;47425;51.976;5.326;2023-09-19T06:32:39;100763.47;;;21.33;52.79
61554;BME280;47425;51.976;5.326;2023-09-19T06:35:09;100769.56;;;21.35;52.16
61554;BME280;47425;51.976;5.326;2023-09-19T06:37:39;100761.97;;;21.29;52.47
61554;BME280;47425;51.976;5.326;2023-09-19T06:40:07;100758.88;;;21.22;51.26
61554;BME280;47425;51.976;5.326;2023-09-19T06:42:38;100769.81;;;20.90;52.73
61554;BME280;47425;51.976;5.326;2023-09-19T06:45:06;100780.31;;;20.79;53.68
61554;BME280;47425;51.976;5.326;2023-09-19T06:47:33;100771.38;;;20.80;53.74
61554;BME280;47425;51.976;5.326;2023-09-19T06:50:00;100777.91;;;20.89;53.74
61554;BME280;47425;51.976;5.326;2023-09-19T06:52:29;100759.97;;;21.05;53.70
61554;BME280;47425;51.976;5.326;2023-09-19T06:54:58;100768.31;;;21.13;52.69
61554;BME280;47425;51.976;5.326;2023-09-19T06:57:25;100773.19;;;21.07;53.14
61554;BME280;47425;51.976;5.326;2023-09-19T06:59:51;100775.72;;;20.95;53.42
61554;BME280;47425;51.976;5.326;2023-09-19T07:02:19;100769.00;;;21.03;54.26
61554;BME280;47425;51.976;5.326;2023-09-19T07:04:47;100774.50;;;21.14;53.41
61554;BME280;47425;51.976;5.326;2023-09-19T07:07:13;100762.41;;;21.36;53.37
61554;BME280;47425;51.976;5.326;2023-09-19T07:09:40;100775.78;;;21.49;52.62
61554;BME280;47425;51.976;5.326;2023-09-19T07:12:08;100775.66;;;21.50;52.97
61554;BME280;47425;51.976;5.326;2023-09-19T07:14:36;100778.03;;;21.55;52.30
61554;BME280;47425;51.976;5.326;2023-09-19T07:17:03;100776.97;;;21.57;52.92
61554;BME280;47425;51.976;5.326;2023-09-19T07:19:29;100776.34;;;21.67;52.19
61554;BME280;47425;51.976;5.326;2023-09-19T07:21:56;100780.72;;;21.68;52.21
61554;BME280;47425;51.976;5.326;2023-09-19T07:24:24;100781.34;;;21.71;51.69
61554;BME280;47425;51.976;5.326;2023-09-19T07:26:54;100783.38;;;21.55;52.58
61554;BME280;47425;51.976;5.326;2023-09-19T07:29:22;100784.66;;;21.62;52.47
61554;BME280;47425;51.976;5.326;2023-09-19T07:31:48;100793.91;;;21.56;52.10
61554;BME280;47425;51.976;5.326;2023-09-19T07:34:15;100789.28;;;21.45;52.25
61554;BME280;47425;51.976;5.326;2023-09-19T07:36:41;100795.31;;;21.35;52.76
61554;BME280;47425;51.976;5.326;2023-09-19T07:39:10;100792.44;;;21.25;52.39
61554;BME280;47425;51.976;5.326;2023-09-19T07:41:37;100814.78;;;21.22;53.50
61554;BME280;47425;51.976;5.326;2023-09-19T07:44:03;100799.25;;;21.29;52.60
61554;BME280;47425;51.976;5.326;2023-09-19T07:46:31;100797.66;;;21.26;53.04
61554;BME280;47425;51.976;5.326;2023-09-19T07:48:58;100805.31;;;21.31;52.70
61554;BME280;47425;51.976;5.326;2023-09-19T07:51:26;100797.81;;;21.51;52.85
61554;BME280;47425;51.976;5.326;2023-09-19T07:53:53;100793.34;;;21.51;52.92
61554;BME280;47425;51.976;5.326;2023-09-19T07:56:20;100795.63;;;21.57;52.38
61554;BME280;47425;51.976;5.326;2023-09-19T07:58:49;100801.19;;;21.54;52.86
61554;BME280;47425;51.976;5.326;2023-09-19T08:01:15;100800.56;;;21.36;52.44
61554;BME280;47425;51.976;5.326;2023-09-19T08:03:44;100793.94;;;21.29;52.87
61554;BME280;47425;51.976;5.326;2023-09-19T08:06:11;100791.84;;;21.47;52.73
61554;BME280;47425;51.976;5.326;2023-09-19T08:08:39;100804.06;;;21.64;52.86
61554;BME280;47425;51.976;5.326;2023-09-19T08:11:06;100805.25;;;21.86;52.20
61554;BME280;47425;51.976;5.326;2023-09-19T08:13:38;100794.91;;;21.94;51.08
61554;BME280;47425;51.976;5.326;2023-09-19T08:16:09;100803.88;;;21.80;51.81
61554;BME280;47425;51.976;5.326;2023-09-19T08:18:36;100800.56;;;21.76;52.22
61554;BME280;47425;51.976;5.326;2023-09-19T08:21:04;100807.19;;;21.84;52.04
61554;BME280;47425;51.976;5.326;2023-09-19T08:23:32;100793.09;;;21.82;52.35
61554;BME280;47425;51.976;5.326;2023-09-19T08:25:59;100807.31;;;21.95;52.17
61554;BME280;47425;51.976;5.326;2023-09-19T08:28:29;100810.81;;;22.08;51.86
61554;BME280;47425;51.976;5.326;2023-09-19T08:30:56;100803.91;;;22.19;50.82
61554;BME280;47425;51.976;5.326;2023-09-19T08:33:27;100807.81;;;22.26;51.19
61554;BME280;47425;51.976;5.326;2023-09-19T08:35:55;100816.47;;;22.29;50.71
61554;BME280;47425;51.976;5.326;2023-09-19T08:38:23;100807.19;;;22.09;51.72
61554;BME280;47425;51.976;5.326;2023-09-19T08:40:52;100800.25;;;22.20;51.10
61554;BME280;47425;51.976;5.326;2023-09-19T08:43:21;100793.53;;;22.14;51.36
61554;BME280;47425;51.976;5.326;2023-09-19T08:45:47;100792.69;;;22.13;50.96
61554;BME280;47425;51.976;5.326;2023-09-19T08:48:17;100791.63;;;22.16;51.18
61554;BME280;47425;51.976;5.326;2023-09-19T08:50:50;100806.56;;;22.06;51.71
61554;BME280;47425;51.976;5.326;2023-09-19T08:53:21;100788.63;;;21.95;51.45
61554;BME280;47425;51.976;5.326;2023-09-19T08:55:52;100791.50;;;22.05;51.39
61554;BME280;47425;51.976;5.326;2023-09-19T08:58:25;100787.66;;;22.22;51.44
61554;BME280;47425;51.976;5.326;2023-09-19T09:00:54;100800.81;;;22.12;51.31
61554;BME280;47425;51.976;5.326;2023-09-19T09:03:22;100796.84;;;22.05;51.49
61554;BME280;47425;51.976;5.326;2023-09-19T09:05:51;100801.84;;;21.96;51.53
61554;BME280;47425;51.976;5.326;2023-09-19T09:08:18;100799.44;;;22.06;51.67
61554;BME280;47425;51.976;5.326;2023-09-19T09:10:46;100792.16;;;22.21;51.52
61554;BME280;47425;51.976;5.326;2023-09-19T09:13:14;100799.41;;;22.45;50.21
61554;BME280;47425;51.976;5.326;2023-09-19T09:15:41;100799.41;;;22.32;49.94
61554;BME280;47425;51.976;5.326;2023-09-19T09:18:11;100797.50;;;22.21;51.26
61554;BME280;47425;51.976;5.326;2023-09-19T09:20:38;100781.56;;;22.33;51.09
61554;BME280;47425;51.976;5.326;2023-09-19T09:23:05;100778.16;;;22.56;50.75
61554;BME280;47425;51.976;5.326;2023-09-19T09:25:47;100772.47;;;22.61;50.63
61554;BME280;47425;51.976;5.326;2023-09-19T09:28:20;100783.41;;;22.82;50.51
61554;BME280;47425;51.976;5.326;2023-09-19T09:30:48;100783.13;;;22.98;49.92
61554;BME280;47425;51.976;5.326;2023-09-19T09:33:15;100780.09;;;23.03;49.86
61554;BME280;47425;51.976;5.326;2023-09-19T09:35:49;100783.72;;;23.15;49.13
61554;BME280;47425;51.976;5.326;2023-09-19T09:38:17;100780.50;;;23.09;49.30
61554;BME280;47425;51.976;5.326;2023-09-19T09:40:47;100780.09;;;23.03;48.89
61554;BME280;47425;51.976;5.326;2023-09-19T09:43:27;100785.44;;;23.03;49.57
61554;BME280;47425;51.976;5.326;2023-09-19T09:46:08;100776.88;;;23.10;49.26
61554;BME280;47425;51.976;5.326;2023-09-19T09:48:55;100763.09;;;23.17;48.73
61554;BME280;47425;51.976;5.326;2023-09-19T09:51:40;100769.78;;;23.22;48.71
61554;BME280;47425;51.976;5.326;2023-09-19T09:54:11;100771.59;;;23.22;48.11
61554;BME280;47425;51.976;5.326;2023-09-19T09:56:53;100769.53;;;23.14;48.74
61554;BME280;47425;51.976;5.326;2023-09-19T09:59:45;100769.03;;;23.20;48.56
61554;BME280;47425;51.976;5.326;2023-09-19T10:02:14;100762.28;;;23.27;48.41
61554;BME280;47425;51.976;5.326;2023-09-19T10:04:46;100760.72;;;23.36;48.29
61554;BME280;47425;51.976;5.326;2023-09-19T10:07:26;100769.50;;;23.38;47.89
61554;BME280;47425;51.976;5.326;2023-09-19T10:09:58;100777.50;;;23.38;48.02
61554;BME280;47425;51.976;5.326;2023-09-19T10:12:37;100789.34;;;23.23;47.79
61554;BME280;47425;51.976;5.326;2023-09-19T10:15:06;100800.28;;;23.20;47.96
61554;BME280;47425;51.976;5.326;2023-09-19T10:17:36;100779.97;;;23.17;48.21
61554;BME280;47425;51.976;5.326;2023-09-19T10:20:03;100785.84;;;23.22;48.01
61554;BME280;47425;51.976;5.326;2023-09-19T10:22:42;100771.16;;;23.28;48.28
61554;BME280;47425;51.976;5.326;2023-09-19T10:25:10;100768.09;;;23.21;47.50
61554;BME280;47425;51.976;5.326;2023-09-19T10:27:37;100763.31;;;23.13;47.47
61554;BME280;47425;51.976;5.326;2023-09-19T10:30:07;100751.88;;;23.11;47.94
61554;BME280;47425;51.976;5.326;2023-09-19T10:32:34;100748.16;;;23.14;48.13
61554;BME280;47425;51.976;5.326;2023-09-19T10:35:02;100754.50;;;23.24;48.26
61554;BME280;47425;51.976;5.326;2023-09-19T10:37:31;100745.75;;;23.22;47.68
61554;BME280;47425;51.976;5.326;2023-09-19T10:39:58;100744.31;;;23.05;47.74
61554;BME280;47425;51.976;5.326;2023-09-19T10:42:25;100735.69;;;23.02;47.49
61554;BME280;47425;51.976;5.326;2023-09-19T10:44:54;100730.28;;;23.15;48.05
61554;BME280;47425;51.976;5.326;2023-09-19T10:47:22;100729.09;;;23.19;47.66
61554;BME280;47425;51.976;5.326;2023-09-19T10:49:50;100725.09;;;23.24;47.73
61554;BME280;47425;51.976;5.326;2023-09-19T10:52:18;100727.31;;;23.31;47.96
61554;BME280;47425;51.976;5.326;2023-09-19T10:54:48;100732.03;;;23.27;47.00
61554;BME280;47425;51.976;5.326;2023-09-19T10:57:18;100741.75;;;23.28;47.41
61554;BME280;47425;51.976;5.326;2023-09-19T11:00:00;100729.47;;;23.25;47.50
61554;BME280;47425;51.976;5.326;2023-09-19T11:05:35;100712.41;;;23.39;47.02
61554;BME280;47425;51.976;5.326;2023-09-19T11:08:06;100717.16;;;23.47;47.11
61554;BME280;47425;51.976;5.326;2023-09-19T11:10:45;100717.91;;;23.60;47.39
61554;BME280;47425;51.976;5.326;2023-09-19T11:13:23;100707.72;;;23.66;46.50
61554;BME280;47425;51.976;5.326;2023-09-19T11:24:29;100708.19;;;23.71;46.98
61554;BME280;47425;51.976;5.326;2023-09-19T11:27:11;100717.44;;;23.78;46.56
61554;BME280;47425;51.976;5.326;2023-09-19T11:29:40;100698.66;;;23.91;46.36
61554;BME280;47425;51.976;5.326;2023-09-19T11:32:06;100698.78;;;23.89;46.32
61554;BME280;47425;51.976;5.326;2023-09-19T11:34:45;100691.47;;;23.91;46.59
61554;BME280;47425;51.976;5.326;2023-09-19T11:40:09;100689.38;;;23.84;46.57
61554;BME280;47425;51.976;5.326;2023-09-19T11:42:41;100673.97;;;23.99;46.25
61554;BME280;47425;51.976;5.326;2023-09-19T11:45:07;100682.22;;;23.95;46.49
61554;BME280;47425;51.976;5.326;2023-09-19T11:47:34;100685.50;;;24.10;45.79
61554;BME280;47425;51.976;5.326;2023-09-19T11:50:02;100678.59;;;24.08;46.03
61554;BME280;47425;51.976;5.326;2023-09-19T11:52:30;100682.81;;;24.10;46.19
61554;BME280;47425;51.976;5.326;2023-09-19T11:55:00;100693.28;;;24.02;45.64
61554;BME280;47425;51.976;5.326;2023-09-19T11:57:29;100686.84;;;24.05;45.59
61554;BME280;47425;51.976;5.326;2023-09-19T11:59:57;100695.13;;;24.02;45.84
61554;BME280;47425;51.976;5.326;2023-09-19T12:02:28;100691.00;;;23.98;45.93
61554;BME280;47425;51.976;5.326;2023-09-19T12:05:00;100695.84;;;23.92;45.83
61554;BME280;47425;51.976;5.326;2023-09-19T12:07:27;100694.13;;;23.80;46.14
61554;BME280;47425;51.976;5.326;2023-09-19T12:10:02;100679.75;;;23.70;46.32
61554;BME280;47425;51.976;5.326;2023-09-19T12:12:30;100689.00;;;23.66;46.11
61554;BME280;47425;51.976;5.326;2023-09-19T12:14:59;100692.75;;;23.63;46.15
61554;BME280;47425;51.976;5.326;2023-09-19T12:17:34;100703.06;;;23.56;46.52
61554;BME280;47425;51.976;5.326;2023-09-19T12:20:01;100698.22;;;23.50;46.39
61554;BME280;47425;51.976;5.326;2023-09-19T12:22:40;100702.44;;;23.53;46.11
61554;BME280;47425;51.976;5.326;2023-09-19T12:25:09;100700.78;;;23.63;46.36
61554;BME280;47425;51.976;5.326;2023-09-19T12:27:42;100702.25;;;23.67;46.31
61554;BME280;47425;51.976;5.326;2023-09-19T12:30:31;100695.81;;;23.58;46.30
61554;BME280;47425;51.976;5.326;2023-09-19T12:33:01;100708.78;;;23.52;46.34
61554;BME280;47425;51.976;5.326;2023-09-19T12:35:28;100685.56;;;23.41;46.31
61554;BME280;47425;51.976;5.326;2023-09-19T12:37:55;100694.69;;;23.38;46.45
61554;BME280;47425;51.976;5.326;2023-09-19T12:40:22;100693.22;;;23.34;46.45
61554;BME280;47425;51.976;5.326;2023-09-19T12:42:55;100693.53;;;23.29;46.74
61554;BME280;47425;51.976;5.326;2023-09-19T12:45:23;100692.22;;;23.35;46.61
61554;BME280;47425;51.976;5.326;2023-09-19T12:50:35;100683.75;;;23.41;46.33
61554;BME280;47425;51.976;5.326;2023-09-19T12:53:03;100690.41;;;23.36;46.30
61554;BME280;47425;51.976;5.326;2023-09-19T12:55:31;100681.31;;;23.38;46.07
61554;BME280;47425;51.976;5.326;2023-09-19T12:58:08;100684.94;;;23.37;46.52
61554;BME280;47425;51.976;5.326;2023-09-19T13:00:36;100691.00;;;23.28;46.36
61554;BME280;47425;51.976;5.326;2023-09-19T13:03:11;100692.78;;;23.16;46.52
61554;BME280;47425;51.976;5.326;2023-09-19T13:05:48;100679.00;;;23.09;46.52
61554;BME280;47425;51.976;5.326;2023-09-19T13:08:17;100685.63;;;23.17;46.63
61554;BME280;47425;51.976;5.326;2023-09-19T13:13:26;100684.81;;;23.27;46.44
61554;BME280;47425;51.976;5.326;2023-09-19T13:15:53;100691.25;;;23.25;46.59
61554;BME280;47425;51.976;5.326;2023-09-19T13:18:20;100698.38;;;23.24;46.40
61554;BME280;47425;51.976;5.326;2023-09-19T13:23:30;100702.56;;;23.40;46.44
61554;BME280;47425;51.976;5.326;2023-09-19T13:25:56;100700.72;;;23.40;46.15